Flight Track Log - Related Links

Times and Time Zones

All times are in EST time to prevent confusion due to time zone crossing. See the EJA922 flight status page for this flight to view local times or setup timezone preferences in your user account.

Time Position Orientation Groundspeed Altitude Reporting Facility
EST Latitude Longitude Course Direction KTS MPH feet Rate Location/Type
Sun 08:07:17 PM 33.5900 -116.1536 240° Southwest 238 274 41,000  Level Los Angeles Center
Sun 08:08:19 PM 33.6261 -116.1019 50° Northeast 254 292 6,900 -15,194 Descending Los Angeles Center
Sun 08:09:21 PM 33.6208 -116.0108 94° East 267 307 9,600 2,274 Climbing Los Angeles Center
Sun 08:10:23 PM 33.6358 -115.9114 80° East 300 345 11,600 1,839 Climbing Los Angeles Center
Sun 08:11:25 PM 33.6753 -115.8031 66° East 343 395 13,400 2,371 Climbing Los Angeles Center
Sun 08:12:27 PM 33.7283 -115.6575 66° East 388 447 16,500 2,710 Climbing Los Angeles Center
Sun 08:13:29 PM 33.7983 -115.5619 49° Northeast 411 473 19,000 2,226 Climbing Los Angeles Center
Sun 08:14:31 PM 33.8972 -115.4997 28° Northeast 405 466 21,100 1,887 Climbing Los Angeles Center
Sun 08:15:33 PM 33.9869 -115.4064 41° Northeast 427 491 22,900 1,306 Climbing Los Angeles Center
Sun 08:16:35 PM 34.0764 -115.2942 46° Northeast 476 548 23,800 1,403 Climbing Los Angeles Center
Sun 08:17:37 PM 34.1508 -115.1581 57° Northeast 484 557 25,800 2,177 Climbing Los Angeles Center
Sun 08:18:39 PM 34.2400 -114.9925 57° Northeast 487 560 28,300 2,177 Climbing Los Angeles Center
Sun 08:19:41 PM 34.3169 -114.8536 56° Northeast 494 568 30,300 1,742 Climbing Los Angeles Center
Sun 08:20:43 PM 34.4236 -114.7431 41° Northeast 504 580 31,900 1,452 Climbing Los Angeles Center
Sun 08:21:45 PM 34.5394 -114.6347 38° Northeast 519 597 33,300 1,500 Climbing Los Angeles Center
Sun 08:22:47 PM 34.6544 -114.5222 39° Northeast 528 608 35,000 1,597 Climbing Los Angeles Center
Sun 08:23:49 PM 34.7769 -114.4025 39° Northeast 553 636 36,600 968 Climbing Los Angeles Center
Sun 08:24:51 PM 34.9247 -114.2608 38° Northeast 562 647 37,000 1,113 Climbing Los Angeles Center
Sun 08:25:53 PM 35.0525 -114.1383 38° Northeast 577 664 38,900 1,790 Climbing Los Angeles Center
Sun 08:26:55 PM 35.1750 -114.0214 38° Northeast 569 655 40,700 1,016 Climbing Los Angeles Center
Sun 08:27:57 PM 35.2822 -113.9167 39° Northeast 552 635 41,000 144 Climbing Los Angeles Center
Sun 08:29:00 PM 35.4275 -113.7753 38° Northeast 555 639 41,000  Level Los Angeles Center
Sun 08:30:02 PM 35.5481 -113.6564 39° Northeast 554 638 41,000  Level Los Angeles Center
Sun 08:31:04 PM 35.6686 -113.5392 38° Northeast 553 636 41,000  Level Los Angeles Center
Sun 08:32:18 PM 35.8150 -113.3953 39° Northeast 557 641 41,000  Level Los Angeles Center
Sun 08:33:20 PM 35.9369 -113.2747 39° Northeast 559 643 41,000  Level Los Angeles Center
Sun 08:34:22 PM 36.0706 -113.1408 39° Northeast 560 644 41,000  Level Los Angeles Center
Sun 08:35:24 PM 36.1917 -113.0186 39° Northeast 563 648 41,000  Level Los Angeles Center
Sun 08:36:26 PM 36.3133 -112.8975 39° Northeast 564 649 41,000  Level Los Angeles Center
Sun 08:37:28 PM 36.4569 -112.7522 39° Northeast 560 644 41,000  Level Los Angeles Center
Sun 08:38:30 PM 36.5769 -112.6292 39° Northeast 563 648 41,000  Level Los Angeles Center
Sun 08:39:32 PM 36.6978 -112.5081 39° Northeast 562 647 41,000  Level Los Angeles Center
Sun 08:40:34 PM 36.8181 -112.3847 39° Northeast 563 648 41,000  Level Los Angeles Center
Sun 08:41:36 PM 36.9400 -112.2603 39° Northeast 569 655 41,000  Level Los Angeles Center
Sun 08:42:38 PM 37.0606 -112.1353 40° Northeast 568 654 41,000  Level Los Angeles Center
Sun 08:43:40 PM 37.2053 -111.9844 40° Northeast 568 654 41,000  Level Los Angeles Center
Sun 08:44:42 PM 37.3283 -111.8583 39° Northeast 573 659 41,000  Level Los Angeles Center
Sun 08:45:44 PM 37.4503 -111.7294 40° Northeast 575 662 41,000  Level Los Angeles Center
Sun 08:46:46 PM 37.5733 -111.6033 39° Northeast 574 661 41,000  Level Los Angeles Center
Sun 08:47:48 PM 37.6925 -111.4764 40° Northeast 568 654 41,000  Level Los Angeles Center
Sun 08:49:14 PM 37.8633 -111.2431 47° Northeast 577 664 41,000  Level Salt Lake Center
Sun 08:50:15 PM 37.9483 -111.0692 58° Northeast 583 671 41,000  Level Salt Lake Center
Sun 08:51:17 PM 38.0286 -110.9067 58° Northeast 587 676 41,000  Level Salt Lake Center
Sun 08:52:18 PM 38.1244 -110.7103 58° Northeast 586 674 41,000  Level Salt Lake Center
Sun 08:53:19 PM 38.2078 -110.5433 58° Northeast 585 673 41,000  Level Salt Lake Center
Sun 08:54:20 PM 38.3014 -110.3458 59° Northeast 584 672 41,000  Level Denver Center
Sun 08:55:21 PM 38.3825 -110.1775 58° Northeast 583 671 41,000  Level Denver Center
Sun 08:56:23 PM 38.4650 -110.0072 58° Northeast 589 678 41,000 -732 Level Denver Center
Sun 08:57:24 PM 38.5600 -109.8067 59° Northeast 592 681 39,500 -1,672 Descending Denver Center
Sun 08:58:25 PM 38.6419 -109.6383 58° Northeast 587 676 37,600 -1,951 Descending Denver Center
Sun 08:59:27 PM 38.7342 -109.4378 59° Northeast 588 677 35,500 -2,293 Descending Denver Center
Sun 09:00:28 PM 38.8128 -109.2775 58° Northeast 558 642 32,900 -2,634 Descending Denver Center
Sun 09:01:30 PM 38.8892 -109.1119 59° Northeast 563 648 30,100 -2,878 Descending Denver Center
Sun 09:02:31 PM 38.9778 -108.9219 59° Northeast 556 640 27,000 -2,780 Descending Denver Center
Sun 09:03:33 PM 39.0494 -108.7692 59° Northeast 527 606 24,400 -2,390 Descending Denver Center
Sun 09:04:34 PM 39.1294 -108.5972 59° Northeast 511 588 22,100 -2,049 Descending Denver Center
Sun 09:05:36 PM 39.1994 -108.4456 59° Northeast 488 562 20,200 -1,707 Descending Denver Center
Sun 09:06:37 PM 39.2514 -108.2839 67° East 458 527 18,600 -1,463 Descending Denver Center
Sun 09:07:39 PM 39.3017 -108.1122 69° East 476 548 17,200 -1,415 Descending Denver Center
Sun 09:08:40 PM 39.3436 -107.9797 68° East 403 464 15,700 -1,230 Descending Denver Center
Sun 09:09:41 PM 39.3872 -107.8481 67° East 399 459 14,700 -780 Descending Denver Center
Sun 09:10:43 PM 39.4111 -107.7383 74° East 401 461 14,100 -341 Descending Denver Center
Sun 09:11:44 PM 39.4467 -107.5689 75° East 387 445 14,000 -341 Descending Denver Center
Sun 09:12:46 PM 39.4706 -107.4350 77° East 394 453 13,400 -488 Descending Denver Center
Sun 09:13:47 PM 39.4706 -107.2817 90° East 384 442 13,000 -195 Descending Denver Center
Sun 09:14:49 PM 39.4919 -107.1831 74° East 334 384 13,000 -49 Level Denver Center
Sun 09:15:50 PM 39.5336 -107.2092 334° Northwest 214 246 12,900 -146 Descending Denver Center
Sun 09:16:52 PM 39.5364 -107.2878 273° West 197 227 12,700 -585 Descending Denver Center
Sun 09:17:53 PM 39.5339 -107.3558 267° West 197 227 11,700 -1,073 Descending Denver Center
Sun 09:18:55 PM 39.5317 -107.4369 268° West 201 231 10,500 -1,171 Descending Denver Center
Sun 09:19:56 PM 39.5308 -107.5092 269° West 200 230 9,300 -1,171 Descending Denver Center
Sun 09:20:58 PM 39.5292 -107.5756 268° West 194 223 8,100 -1,122 Descending Denver Center
Sun 09:21:59 PM 39.5286 -107.6403 269° West 187 215 7,000 -1,024 Descending Denver Center
Sun 09:23:01 PM 39.5275 -107.6942 268° West 172 198 6,000 -726 Descending Denver Center
Sun 09:24:03 PM 39.5272 -107.7331 269° West 138 159 5,500 -484 Descending Denver Center

Login

Don't have an account? Register now (free) for customized features, flight alerts, and more!